Wrightwood, California
Current Conditions -  °F | °C
As of 7:55 PM on Wednesday 26 Nov 2014 (Local Time) from KGXA Reporting Station
Clear Clear  
Wind Chill: 44°   Ceiling: Unl
Heat Index: 47°   Visibility: 10mi
Dew Point:   Wind: 6mph
Humidity: 21%   Direction: 170°S
Pressure: 30.31"   Gusts: NA
Location:  34.36°N, 117.63°W
Report Text: KGXA 270355Z AUTO 17005KT 10SM CLR 08/M13 A3031 RMK AO2 SLP281 T00841129 PWINO TSNO $
Loading
Personal Weather Stations






























Interactive Weather Map New forecast layout! Learn more

10-Day Weather Forecast

Advertisements
Track Severe Weather on mobile